Time;durP1;ratioP1;P1;durP2;ratioP2;P2;SDS_P1;SDS_P2;PMS_P1;PMS_P2;Temp;Humidity;BMP_temperature;BMP_pressure;BME280_temperature;BME280_humidity;BME280_pressure;Samples;Min_cycle;Max_cycle;Signal;HPM_P1;HPM_P2
2022/08/05 00:02:06;;;;;;;2.53;1.60;;;24.90;47.40;;;;;;4991754;28;20195;-59
2022/08/05 00:04:32;;;;;;;1.70;1.60;;;24.90;47.40;;;;;;4985391;28;20223;-69
2022/08/05 00:06:57;;;;;;;1.90;1.80;;;24.90;47.40;;;;;;4990568;28;20220;-57
2022/08/05 00:09:23;;;;;;;1.83;1.73;;;24.90;47.50;;;;;;4996385;28;20202;-62
2022/08/05 00:11:49;;;;;;;1.87;1.77;;;24.90;47.40;;;;;;4992021;28;20192;-57
2022/08/05 00:14:15;;;;;;;2.70;2.00;;;24.90;47.40;;;;;;4989040;28;20923;-70
2022/08/05 00:16:40;;;;;;;1.80;1.70;;;24.90;47.40;;;;;;4992278;28;20206;-68
2022/08/05 00:19:06;;;;;;;1.70;1.57;;;24.90;47.30;;;;;;4986939;28;20478;-66
2022/08/05 00:21:31;;;;;;;2.20;2.10;;;24.90;47.30;;;;;;4985832;28;20176;-63
2022/08/05 00:23:59;;;;;;;1.70;1.60;;;24.90;47.70;;;;;;4996409;28;20563;-59
2022/08/05 00:26:25;;;;;;;1.60;1.50;;;24.90;47.40;;;;;;4991064;28;20258;-56
2022/08/05 00:28:51;;;;;;;1.97;1.87;;;24.90;47.40;;;;;;4989685;28;20439;-63
2022/08/05 00:31:17;;;;;;;1.70;1.60;;;24.90;47.40;;;;;;4988258;28;20850;-58
2022/08/05 00:33:42;;;;;;;2.20;2.10;;;24.90;47.50;;;;;;4990409;28;20514;-59
2022/08/05 00:36:08;;;;;;;2.00;1.90;;;24.90;47.30;;;;;;4987088;28;21428;-64
2022/08/05 00:38:34;;;;;;;1.90;1.80;;;24.90;47.30;;;;;;4993914;28;20211;-68
2022/08/05 00:40:59;;;;;;;2.80;2.07;;;24.90;47.40;;;;;;4985141;28;20196;-61
2022/08/05 00:43:25;;;;;;;2.93;2.13;;;24.90;47.30;;;;;;4990362;28;20183;-56
2022/08/05 00:45:51;;;;;;;2.07;1.97;;;24.90;47.30;;;;;;4994503;28;20188;-57
2022/08/05 00:48:19;;;;;;;1.90;1.80;;;24.90;47.30;;;;;;4989907;28;20191;-59
2022/08/05 00:50:47;;;;;;;2.07;1.87;;;24.90;47.20;;;;;;4989589;28;20190;-56
2022/08/05 00:53:18;;;;;;;6.40;2.77;;;24.90;47.30;;;;;;4988860;28;20433;-60
2022/08/05 00:55:44;;;;;;;2.53;2.10;;;24.90;47.20;;;;;;4992968;28;20440;-66
2022/08/05 00:58:17;;;;;;;2.07;1.97;;;24.90;47.20;;;;;;4988533;28;20452;-69
2022/08/05 01:00:44;;;;;;;1.97;1.87;;;24.90;47.20;;;;;;4989927;28;20203;-63
2022/08/05 01:03:10;;;;;;;1.97;1.70;;;24.90;47.30;;;;;;4988316;28;20512;-60
2022/08/05 01:05:37;;;;;;;1.73;1.63;;;24.90;47.30;;;;;;4992973;28;20487;-59
2022/08/05 01:08:03;;;;;;;2.10;2.00;;;24.90;47.20;;;;;;4987769;28;20942;-57
2022/08/05 01:10:47;;;;;;;2.30;1.93;;;24.90;47.30;;;;;;4991347;28;20432;-69
2022/08/05 01:13:20;;;;;;;2.03;1.93;;;24.90;47.30;;;;;;4986102;28;20517;-58
2022/08/05 01:15:58;;;;;;;2.13;1.87;;;24.90;47.30;;;;;;4987730;28;20441;-64
2022/08/05 01:18:28;;;;;;;2.70;1.77;;;24.90;47.30;;;;;;4987050;28;21074;-69
2022/08/05 01:21:24;;;;;;;2.10;2.00;;;24.90;47.30;;;;;;4988790;28;20548;-56
2022/08/05 01:24:23;;;;;;;2.00;1.90;;;24.90;47.20;;;;;;4988703;28;20433;-68
2022/08/05 01:26:54;;;;;;;2.20;2.00;;;24.90;47.30;;;;;;4991302;28;20969;-58
2022/08/05 01:29:28;;;;;;;1.87;1.77;;;24.90;47.30;;;;;;4988023;28;20460;-57
2022/08/05 01:31:58;;;;;;;1.97;1.87;;;24.90;47.30;;;;;;4988021;28;20437;-60
2022/08/05 01:34:33;;;;;;;2.73;1.87;;;24.90;47.30;;;;;;4991009;28;20449;-62
2022/08/05 01:37:12;;;;;;;2.00;1.90;;;24.90;47.30;;;;;;4984148;28;20436;-60
2022/08/05 01:39:39;;;;;;;1.70;1.60;;;24.90;47.20;;;;;;4989725;28;20476;-57
2022/08/05 01:42:06;;;;;;;2.50;2.30;;;24.90;47.20;;;;;;4991024;28;20429;-70
2022/08/05 01:44:34;;;;;;;1.93;1.83;;;24.90;47.20;;;;;;4987977;28;20782;-56
2022/08/05 01:47:01;;;;;;;2.20;1.60;;;24.90;47.30;;;;;;4984939;28;20485;-56
2022/08/05 01:49:28;;;;;;;2.23;2.13;;;24.90;47.30;;;;;;4987409;28;21025;-56
2022/08/05 01:51:58;;;;;;;1.70;1.60;;;24.90;47.20;;;;;;4988300;28;20567;-56
2022/08/05 01:54:30;;;;;;;1.90;1.80;;;24.90;47.30;;;;;;4985206;28;20434;-63
2022/08/05 01:56:57;;;;;;;2.10;2.00;;;24.90;47.30;;;;;;4995938;28;20438;-56
2022/08/05 01:59:26;;;;;;;1.80;1.70;;;24.90;47.40;;;;;;4984814;28;20462;-59
2022/08/05 02:01:54;;;;;;;2.00;1.90;;;24.90;47.40;;;;;;4987339;28;20450;-59
2022/08/05 02:04:22;;;;;;;1.40;1.30;;;24.90;47.50;;;;;;4987492;28;20882;-58
2022/08/05 02:06:48;;;;;;;2.20;1.90;;;24.90;48.20;;;;;;4990640;28;20507;-69
2022/08/05 02:09:14;;;;;;;1.93;1.73;;;24.90;47.30;;;;;;4982818;28;20863;-64
2022/08/05 02:11:47;;;;;;;2.90;2.07;;;24.90;47.30;;;;;;4994805;28;20189;-58
2022/08/05 02:14:46;;;;;;;2.10;2.00;;;24.90;47.30;;;;;;4985669;28;20230;-62
2022/08/05 02:17:23;;;;;;;1.80;1.70;;;24.90;47.30;;;;;;4982689;28;20548;-68
2022/08/05 02:19:54;;;;;;;2.07;1.97;;;24.90;47.30;;;;;;4988466;28;20467;-56
2022/08/05 02:22:27;;;;;;;2.70;2.07;;;24.90;47.40;;;;;;4989288;28;20939;-56
2022/08/05 02:25:02;;;;;;;1.80;1.70;;;24.90;47.30;;;;;;4988659;28;20450;-63
2022/08/05 02:27:31;;;;;;;1.93;1.83;;;24.90;47.40;;;;;;4996189;28;20429;-56
2022/08/05 02:30:01;;;;;;;2.23;2.00;;;24.90;47.40;;;;;;4987445;28;20428;-56
2022/08/05 02:32:29;;;;;;;2.00;1.90;;;24.90;47.30;;;;;;4999687;28;20448;-56
2022/08/05 02:35:02;;;;;;;2.20;2.10;;;24.90;47.30;;;;;;4993345;28;20438;-67
2022/08/05 02:37:31;;;;;;;2.07;1.93;;;24.90;47.40;;;;;;4997421;28;20491;-64
2022/08/05 02:39:57;;;;;;;1.90;1.80;;;24.90;47.30;;;;;;4994387;28;20587;-62
2022/08/05 02:42:22;;;;;;;2.10;2.00;;;24.90;47.40;;;;;;4995745;28;20527;-57
2022/08/05 02:44:49;;;;;;;1.87;1.77;;;24.90;47.40;;;;;;4995423;28;20267;-58
2022/08/05 02:47:15;;;;;;;2.17;2.07;;;24.90;47.40;;;;;;4996324;28;22455;-59
2022/08/05 02:49:44;;;;;;;2.00;1.90;;;24.90;47.50;;;;;;4994836;28;20448;-57
2022/08/05 02:52:16;;;;;;;2.07;1.97;;;24.90;47.50;;;;;;4997287;28;20441;-61
2022/08/05 02:54:44;;;;;;;1.80;1.70;;;24.90;47.50;;;;;;5000109;28;20544;-57
2022/08/05 02:57:13;;;;;;;2.00;1.90;;;24.90;47.50;;;;;;5001100;28;20504;-59
2022/08/05 02:59:41;;;;;;;1.80;1.70;;;24.90;47.50;;;;;;5003504;28;20570;-57
2022/08/05 03:02:08;;;;;;;2.33;2.13;;;24.90;47.50;;;;;;5004247;28;20927;-56
2022/08/05 03:04:35;;;;;;;1.90;1.80;;;24.90;47.60;;;;;;4999802;28;20483;-60
2022/08/05 03:07:01;;;;;;;2.33;2.17;;;24.90;47.60;;;;;;4996494;28;20481;-59
2022/08/05 03:09:27;;;;;;;1.90;1.80;;;24.90;47.60;;;;;;4997688;28;20436;-57
2022/08/05 03:11:52;;;;;;;2.33;2.10;;;24.90;47.60;;;;;;4998240;28;20460;-57
2022/08/05 03:14:18;;;;;;;2.00;1.90;;;24.90;47.60;;;;;;5002399;28;20269;-56
2022/08/05 03:16:43;;;;;;;2.20;2.10;;;24.90;47.60;;;;;;4995827;28;20195;-60
2022/08/05 03:19:09;;;;;;;2.30;2.10;;;24.90;47.60;;;;;;4997462;28;21259;-58
2022/08/05 03:21:35;;;;;;;2.40;2.20;;;24.90;47.60;;;;;;5000151;28;20583;-58
2022/08/05 03:24:01;;;;;;;3.23;2.30;;;24.90;47.70;;;;;;4999578;28;20198;-56
2022/08/05 03:26:27;;;;;;;3.37;2.50;;;24.90;47.70;;;;;;4994540;28;20192;-56
2022/08/05 03:28:53;;;;;;;2.37;2.17;;;24.90;47.70;;;;;;4998122;28;20422;-61
2022/08/05 03:31:19;;;;;;;2.60;2.40;;;24.90;47.70;;;;;;5000387;28;20709;-56
2022/08/05 03:33:45;;;;;;;4.00;2.60;;;24.90;47.70;;;;;;4996753;28;20199;-68
2022/08/05 03:36:11;;;;;;;2.40;2.23;;;24.90;47.70;;;;;;5002021;28;20210;-58
2022/08/05 03:38:43;;;;;;;2.40;2.20;;;24.90;47.80;;;;;;4998063;28;20585;-60
2022/08/05 03:41:08;;;;;;;2.47;2.27;;;24.90;47.70;;;;;;5001980;28;20216;-57
2022/08/05 03:43:35;;;;;;;2.73;2.37;;;24.90;47.70;;;;;;4997771;28;20484;-57
2022/08/05 03:46:01;;;;;;;2.10;1.93;;;24.90;47.80;;;;;;5000678;28;20222;-57
2022/08/05 03:48:28;;;;;;;2.33;2.23;;;24.90;47.70;;;;;;4997530;28;20429;-56
2022/08/05 03:51:07;;;;;;;2.33;2.10;;;24.80;47.70;;;;;;4999672;28;20252;-59
2022/08/05 03:54:20;;;;;;;1.90;1.80;;;24.90;47.80;;;;;;4999164;28;20443;-69
2022/08/05 03:56:46;;;;;;;2.10;1.90;;;24.90;47.80;;;;;;4979484;28;20444;-60
2022/08/05 03:59:24;;;;;;;2.20;2.00;;;24.80;47.70;;;;;;4997909;28;20503;-58
2022/08/05 04:01:52;;;;;;;2.80;1.60;;;24.80;47.70;;;;;;4995134;28;20969;-61
2022/08/05 04:04:20;;;;;;;4.10;1.93;;;24.80;47.70;;;;;;4996546;28;20460;-65
2022/08/05 04:06:47;;;;;;;2.30;2.10;;;24.80;47.70;;;;;;4996846;28;20437;-61
2022/08/05 04:09:14;;;;;;;2.33;2.13;;;24.80;47.80;;;;;;4997516;28;20472;-57
2022/08/05 04:11:39;;;;;;;2.20;2.00;;;24.80;47.80;;;;;;5001990;28;20459;-59
2022/08/05 04:14:06;;;;;;;2.73;2.53;;;24.80;47.80;;;;;;4998861;28;20480;-55
2022/08/05 04:16:34;;;;;;;2.00;1.90;;;24.90;47.90;;;;;;4998326;28;20655;-57
2022/08/05 04:19:00;;;;;;;2.50;2.10;;;24.90;47.80;;;;;;4997732;28;22387;-57
2022/08/05 04:21:26;;;;;;;2.30;2.20;;;24.80;47.70;;;;;;4998555;28;20449;-62
2022/08/05 04:23:52;;;;;;;2.53;2.33;;;24.80;47.80;;;;;;4995147;28;20426;-60
2022/08/05 04:26:18;;;;;;;3.13;2.53;;;24.90;47.90;;;;;;5000925;28;20442;-59
2022/08/05 04:28:44;;;;;;;2.50;2.30;;;24.80;47.80;;;;;;4994908;28;20651;-65
2022/08/05 04:31:10;;;;;;;2.10;2.00;;;24.90;47.90;;;;;;4996250;28;20188;-61
2022/08/05 04:33:35;;;;;;;2.27;2.07;;;24.90;48.00;;;;;;5000639;28;20431;-64
2022/08/05 04:36:01;;;;;;;2.30;2.20;;;24.90;48.10;;;;;;4995793;28;20183;-61
2022/08/05 04:38:26;;;;;;;2.60;2.40;;;24.90;48.00;;;;;;4997338;28;20184;-57
2022/08/05 04:40:52;;;;;;;2.20;2.00;;;24.90;48.00;;;;;;4997042;28;20191;-64
2022/08/05 04:43:17;;;;;;;2.13;2.03;;;25.00;48.10;;;;;;4994112;28;20184;-58
2022/08/05 04:45:43;;;;;;;2.20;2.10;;;25.00;48.20;;;;;;4994247;28;20223;-58
2022/08/05 04:48:11;;;;;;;1.83;1.73;;;25.00;48.20;;;;;;4998263;28;20186;-60
2022/08/05 04:50:46;;;;;;;2.57;2.37;;;25.00;48.30;;;;;;4993291;28;20199;-58
2022/08/05 04:53:12;;;;;;;2.83;2.67;;;25.00;48.30;;;;;;5001868;28;20441;-57
2022/08/05 04:55:39;;;;;;;3.40;3.20;;;25.00;48.30;;;;;;4995424;28;20930;-67
2022/08/05 04:58:06;;;;;;;2.50;2.40;;;25.00;48.40;;;;;;4997899;28;20432;-56
2022/08/05 05:00:33;;;;;;;3.10;2.90;;;25.00;48.40;;;;;;4998015;28;20527;-64
2022/08/05 05:02:59;;;;;;;3.07;2.77;;;25.00;48.40;;;;;;4992565;28;20432;-56
2022/08/05 05:05:25;;;;;;;2.30;2.20;;;25.00;48.50;;;;;;4997480;28;20768;-56
2022/08/05 05:07:50;;;;;;;2.80;2.60;;;25.00;48.50;;;;;;4995308;28;20391;-62
2022/08/05 05:10:16;;;;;;;3.40;3.00;;;25.00;48.50;;;;;;4996973;28;20196;-57
2022/08/05 05:12:42;;;;;;;3.10;2.80;;;25.00;49.10;;;;;;4992500;28;20298;-59
2022/08/05 05:15:08;;;;;;;2.80;2.60;;;25.00;48.60;;;;;;4998650;28;20202;-66
2022/08/05 05:17:38;;;;;;;2.80;2.70;;;25.00;48.70;;;;;;4993975;28;20184;-66
2022/08/05 05:20:05;;;;;;;2.97;2.77;;;25.00;48.70;;;;;;4994769;28;20457;-58
2022/08/05 05:22:31;;;;;;;3.20;3.00;;;25.00;48.80;;;;;;4989421;28;20448;-68
2022/08/05 05:24:56;;;;;;;3.13;2.93;;;25.00;49.00;;;;;;4988418;28;20441;-68
2022/08/05 05:27:22;;;;;;;3.07;2.87;;;25.00;48.90;;;;;;4988293;28;20206;-62
2022/08/05 05:29:47;;;;;;;3.17;3.07;;;25.00;48.80;;;;;;4985458;28;20346;-57
2022/08/05 05:32:13;;;;;;;3.27;3.07;;;25.00;48.80;;;;;;4995504;28;20297;-60
2022/08/05 05:34:39;;;;;;;4.40;4.20;;;25.00;49.00;;;;;;4990639;28;20176;-73
2022/08/05 05:37:04;;;;;;;3.70;3.50;;;25.00;49.00;;;;;;4990767;28;20291;-57
2022/08/05 05:39:30;;;;;;;3.20;3.00;;;25.00;49.00;;;;;;4991218;28;20243;-60
2022/08/05 05:41:55;;;;;;;3.50;3.30;;;25.00;49.00;;;;;;4982027;28;20224;-63
2022/08/05 05:44:21;;;;;;;4.27;4.07;;;25.00;49.00;;;;;;4988541;28;20172;-60
2022/08/05 05:46:46;;;;;;;4.10;3.90;;;25.00;49.00;;;;;;4991236;28;20190;-57
2022/08/05 05:49:12;;;;;;;4.70;4.50;;;25.00;48.90;;;;;;4989941;28;20191;-67
2022/08/05 05:51:37;;;;;;;5.30;5.00;;;25.00;48.90;;;;;;4994072;28;20214;-62
2022/08/05 05:54:03;;;;;;;4.50;4.30;;;25.00;48.80;;;;;;4990831;28;20188;-57
2022/08/05 05:56:30;;;;;;;6.37;4.93;;;25.00;48.70;;;;;;4988658;28;20650;-56
2022/08/05 05:58:56;;;;;;;4.20;4.00;;;25.00;48.90;;;;;;4994772;28;20215;-58
2022/08/05 06:01:21;;;;;;;4.40;4.20;;;25.00;48.90;;;;;;4991990;28;20444;-56
2022/08/05 06:03:47;;;;;;;4.10;3.90;;;25.00;48.80;;;;;;4992587;28;21666;-56
2022/08/05 06:06:12;;;;;;;4.47;4.20;;;25.10;49.00;;;;;;4987037;28;20250;-60
2022/08/05 06:08:38;;;;;;;3.30;3.20;;;25.00;49.00;;;;;;4991986;28;20195;-58
2022/08/05 06:11:04;;;;;;;4.93;3.73;;;25.00;49.00;;;;;;4989202;28;20226;-60
2022/08/05 06:13:29;;;;;;;5.03;3.77;;;25.00;49.10;;;;;;4990780;28;20226;-56
2022/08/05 06:15:55;;;;;;;5.33;3.60;;;25.00;49.00;;;;;;4987786;28;20203;-58
2022/08/05 06:18:20;;;;;;;3.80;3.60;;;25.00;49.10;;;;;;4992530;28;20195;-59
2022/08/05 06:20:46;;;;;;;8.53;3.60;;;25.00;49.10;;;;;;4987353;28;20200;-56
2022/08/05 06:23:11;;;;;;;3.80;3.60;;;25.00;49.10;;;;;;4992133;28;20180;-59
2022/08/05 06:25:37;;;;;;;4.83;4.43;;;25.00;49.00;;;;;;4993556;28;20649;-59
2022/08/05 06:28:03;;;;;;;3.73;3.43;;;25.00;49.10;;;;;;4992888;28;20199;-57
2022/08/05 06:30:28;;;;;;;3.67;3.47;;;25.00;49.00;;;;;;4992250;28;20206;-56
2022/08/05 06:32:54;;;;;;;4.07;3.87;;;25.00;49.10;;;;;;4991866;28;20175;-57
2022/08/05 06:35:20;;;;;;;3.70;3.40;;;25.00;49.10;;;;;;4991873;28;20199;-68
2022/08/05 06:37:45;;;;;;;7.13;4.70;;;25.00;49.00;;;;;;4988515;28;20218;-57
2022/08/05 06:40:11;;;;;;;4.43;4.17;;;25.00;49.10;;;;;;4990161;28;20219;-63
2022/08/05 06:42:37;;;;;;;4.53;4.17;;;25.00;49.00;;;;;;4992137;28;20184;-61
2022/08/05 06:45:04;;;;;;;4.50;4.20;;;25.00;49.00;;;;;;4987764;28;20429;-56
2022/08/05 06:47:29;;;;;;;4.83;4.53;;;25.00;49.00;;;;;;4992138;28;20447;-68
2022/08/05 06:49:55;;;;;;;3.73;3.53;;;25.00;49.10;;;;;;4978912;28;20464;-61
2022/08/05 06:52:21;;;;;;;4.00;3.70;;;25.00;49.00;;;;;;4990819;28;20288;-66
2022/08/05 06:54:46;;;;;;;3.83;3.63;;;25.00;49.10;;;;;;4990465;28;20227;-61
2022/08/05 06:57:13;;;;;;;3.93;3.63;;;25.00;49.10;;;;;;4991452;28;20557;-57
2022/08/05 06:59:40;;;;;;;4.37;4.17;;;25.00;49.00;;;;;;4991661;28;21724;-56
2022/08/05 07:02:06;;;;;;;4.27;4.07;;;25.00;49.10;;;;;;4990119;28;20479;-67
2022/08/05 07:04:31;;;;;;;4.10;3.90;;;25.00;49.10;;;;;;5000775;28;20799;-65
2022/08/05 07:06:57;;;;;;;4.33;4.03;;;25.00;49.10;;;;;;4992233;28;20451;-57
2022/08/05 07:09:22;;;;;;;4.37;4.07;;;25.00;49.10;;;;;;4989655;28;21840;-60
2022/08/05 07:11:48;;;;;;;4.13;3.93;;;25.00;49.10;;;;;;4992484;28;20240;-68
2022/08/05 07:16:59;;;;;;;3.20;3.00;;;25.00;49.10;;;;;;4998390;28;20230;-60
2022/08/05 07:19:27;;;;;;;3.70;3.50;;;25.00;49.10;;;;;;4990048;28;20977;-60
2022/08/05 07:21:53;;;;;;;3.80;3.60;;;25.00;49.00;;;;;;4989931;28;20507;-58
2022/08/05 07:24:19;;;;;;;3.90;3.70;;;25.00;49.10;;;;;;4994024;28;20429;-57
2022/08/05 07:26:45;;;;;;;3.80;3.50;;;25.00;49.00;;;;;;4995631;28;21604;-66
2022/08/05 07:29:11;;;;;;;3.80;3.50;;;25.00;49.10;;;;;;4988877;28;20539;-57
2022/08/05 07:31:37;;;;;;;4.90;2.77;;;25.00;49.10;;;;;;4999437;28;20429;-58
2022/08/05 07:34:04;;;;;;;2.87;2.70;;;25.00;49.00;;;;;;4993656;28;20442;-56
2022/08/05 07:36:32;;;;;;;3.60;3.30;;;25.00;49.10;;;;;;4992690;28;20269;-57
2022/08/05 07:39:02;;;;;;;3.00;2.87;;;25.00;49.10;;;;;;4992390;28;20483;-66
2022/08/05 07:41:27;;;;;;;3.13;2.83;;;25.00;49.80;;;;;;4991380;28;20471;-57
2022/08/05 07:43:54;;;;;;;3.70;3.33;;;25.00;49.00;;;;;;4991371;28;20460;-66
2022/08/05 07:46:20;;;;;;;3.20;2.60;;;25.00;49.00;;;;;;4995137;28;20200;-56
2022/08/05 07:48:45;;;;;;;5.03;2.73;;;25.00;49.10;;;;;;4990380;28;20472;-61
2022/08/05 07:51:11;;;;;;;3.63;2.30;;;25.00;49.00;;;;;;4988179;28;20350;-62
2022/08/05 07:53:37;;;;;;;3.10;2.80;;;25.00;48.50;;;;;;4989605;28;20219;-69
2022/08/05 07:56:05;;;;;;;4.90;2.90;;;25.00;48.30;;;;;;4988753;28;22447;-56
2022/08/05 07:58:31;;;;;;;10.70;3.40;;;25.00;48.00;;;;;;4993269;28;20210;-63
2022/08/05 08:00:57;;;;;;;5.00;3.00;;;25.00;48.00;;;;;;4988151;28;20636;-59
2022/08/05 08:03:23;;;;;;;8.03;3.10;;;25.00;47.80;;;;;;4989108;28;20188;-71
2022/08/05 08:05:51;;;;;;;11.03;2.77;;;25.00;47.80;;;;;;4992097;28;20188;-58
2022/08/05 08:08:17;;;;;;;2.40;2.30;;;25.00;47.70;;;;;;4991419;28;20437;-64
2022/08/05 08:10:43;;;;;;;4.60;2.30;;;25.00;47.60;;;;;;4994649;28;20507;-56
2022/08/05 08:13:08;;;;;;;4.53;2.63;;;25.00;47.40;;;;;;4993816;28;22021;-63
2022/08/05 08:15:34;;;;;;;39.23;5.47;;;25.00;47.30;;;;;;4992674;28;20216;-56
2022/08/05 08:18:00;;;;;;;201.97;23.27;;;25.10;47.20;;;;;;4991025;28;20191;-65
2022/08/05 08:20:25;;;;;;;49.53;9.83;;;25.00;47.30;;;;;;4992411;28;21240;-56
2022/08/05 08:22:53;;;;;;;67.07;9.17;;;25.10;47.10;;;;;;4993808;28;20187;-58
2022/08/05 08:25:19;;;;;;;32.10;6.90;;;25.10;47.10;;;;;;4993651;28;20649;-58
2022/08/05 08:27:45;;;;;;;16.50;5.20;;;25.10;47.10;;;;;;4988647;28;20966;-56
2022/08/05 08:30:11;;;;;;;17.40;4.90;;;25.10;47.00;;;;;;4995449;28;20433;-60
2022/08/05 08:32:37;;;;;;;17.07;4.47;;;25.10;47.00;;;;;;4992470;28;20188;-69
2022/08/05 08:35:03;;;;;;;18.73;4.73;;;25.10;46.80;;;;;;4991361;28;21952;-58
2022/08/05 08:37:29;;;;;;;13.40;3.87;;;25.10;46.70;;;;;;4997014;28;20270;-63
2022/08/05 08:39:54;;;;;;;43.93;8.90;;;25.10;46.70;;;;;;4993066;28;20216;-58
2022/08/05 08:42:21;;;;;;;15.60;4.23;;;25.10;46.70;;;;;;4999123;28;20220;-55
2022/08/05 08:44:48;;;;;;;15.00;4.43;;;25.10;47.40;;;;;;4992224;28;20191;-72
2022/08/05 08:47:14;;;;;;;7.07;3.60;;;25.10;46.60;;;;;;4990682;28;20544;-62
2022/08/05 08:49:44;;;;;;;6.20;2.67;;;25.10;46.50;;;;;;4992024;28;21002;-69
2022/08/05 08:52:21;;;;;;;11.70;3.20;;;25.10;46.50;;;;;;4991446;28;20516;-70
2022/08/05 08:54:48;;;;;;;6.00;3.20;;;25.10;46.50;;;;;;4991866;28;20871;-58
2022/08/05 08:57:14;;;;;;;3.67;2.53;;;25.10;46.60;;;;;;4996872;28;20476;-61
2022/08/05 08:59:40;;;;;;;7.27;2.47;;;25.10;46.70;;;;;;4996233;28;20478;-60
2022/08/05 09:02:06;;;;;;;2.63;2.10;;;25.10;46.80;;;;;;4988937;28;20183;-69
2022/08/05 09:04:39;;;;;;;3.37;2.30;;;25.10;46.90;;;;;;4988916;28;20441;-58
2022/08/05 09:07:05;;;;;;;4.57;2.73;;;25.10;47.00;;;;;;4990437;28;20183;-58
2022/08/05 09:09:32;;;;;;;2.50;1.90;;;25.10;47.10;;;;;;4989334;28;20464;-60
2022/08/05 09:11:58;;;;;;;1.93;1.70;;;25.10;47.10;;;;;;4990545;28;20432;-58
2022/08/05 09:14:24;;;;;;;1.93;1.83;;;25.10;47.30;;;;;;4993775;28;20484;-63
2022/08/05 09:16:50;;;;;;;2.43;2.23;;;25.10;47.30;;;;;;4992401;28;20190;-64
2022/08/05 09:19:16;;;;;;;3.43;2.37;;;25.10;47.20;;;;;;4987086;28;20478;-63
2022/08/05 09:21:41;;;;;;;1.90;1.80;;;25.10;47.30;;;;;;4985556;28;20441;-61
2022/08/05 09:24:08;;;;;;;2.27;2.07;;;25.10;47.30;;;;;;4993633;28;20196;-56
2022/08/05 09:26:35;;;;;;;2.70;1.73;;;25.10;47.40;;;;;;4978621;28;20203;-71
2022/08/05 09:29:04;;;;;;;1.97;1.77;;;25.10;47.50;;;;;;4974323;28;20497;-66
2022/08/05 09:31:31;;;;;;;1.43;1.33;;;25.10;47.60;;;;;;4971232;28;20426;-73
2022/08/05 09:34:05;;;;;;;2.43;2.00;;;25.10;47.60;;;;;;4977998;28;21264;-69
2022/08/05 09:36:38;;;;;;;1.93;1.50;;;25.10;47.60;;;;;;4975252;28;21736;-65
2022/08/05 09:39:10;;;;;;;1.73;1.63;;;25.00;47.60;;;;;;4977537;28;20471;-59
2022/08/05 09:41:58;;;;;;;2.30;2.10;;;25.10;47.20;;;;;;4976537;28;20451;-63
2022/08/05 09:44:41;;;;;;;1.50;1.40;;;25.00;47.70;;;;;;4970167;28;20442;-63
2022/08/05 09:47:14;;;;;;;1.30;1.20;;;25.00;47.70;;;;;;4979942;28;20466;-57
2022/08/05 09:49:47;;;;;;;1.50;1.40;;;25.00;47.80;;;;;;4992689;28;20536;-68
2022/08/05 09:52:39;;;;;;;1.40;1.30;;;25.00;47.80;;;;;;4989166;28;21045;-61
2022/08/05 09:55:04;;;;;;;1.40;1.30;;;25.00;48.00;;;;;;4994040;28;20454;-61
2022/08/05 09:57:42;;;;;;;1.53;1.40;;;25.00;48.10;;;;;;4988929;28;20437;-56
2022/08/05 10:00:12;;;;;;;1.40;1.30;;;25.00;48.00;;;;;;4993716;28;20214;-59
2022/08/05 10:02:42;;;;;;;2.40;2.20;;;25.00;48.10;;;;;;4975285;28;20462;-77
2022/08/05 10:05:15;;;;;;;3.10;1.20;;;25.00;48.10;;;;;;4910770;28;20488;-72
2022/08/05 10:08:02;;;;;;;1.40;1.30;;;25.00;48.10;;;;;;4911207;28;20758;-76
2022/08/05 10:10:36;;;;;;;1.33;1.23;;;25.00;48.20;;;;;;4908338;28;20491;-76
2022/08/05 10:13:03;;;;;;;2.57;1.40;;;25.00;48.30;;;;;;4905734;28;20586;-72
2022/08/05 10:15:34;;;;;;;1.50;1.40;;;25.00;48.20;;;;;;4917806;28;21025;-76
2022/08/05 10:18:02;;;;;;;1.23;1.13;;;25.00;48.20;;;;;;4918330;28;20705;-63
2022/08/05 10:20:28;;;;;;;1.60;1.50;;;25.00;48.20;;;;;;4916127;28;20708;-77
2022/08/05 10:22:55;;;;;;;1.30;1.20;;;25.00;48.20;;;;;;4924031;28;20435;-73
2022/08/05 10:25:20;;;;;;;1.30;1.20;;;25.00;48.20;;;;;;4927910;28;20516;-66
2022/08/05 10:27:47;;;;;;;1.40;1.30;;;25.00;48.10;;;;;;4916326;28;22209;-76
2022/08/05 10:30:12;;;;;;;2.10;1.63;;;25.00;48.20;;;;;;4915805;28;20215;-76
2022/08/05 10:32:38;;;;;;;1.30;1.20;;;25.00;48.20;;;;;;4915013;28;20552;-60
2022/08/05 10:35:04;;;;;;;1.50;1.40;;;25.00;48.20;;;;;;4913940;28;20302;-61
2022/08/05 10:37:32;;;;;;;1.30;1.20;;;25.00;48.20;;;;;;4917780;28;20463;-66
2022/08/05 10:40:03;;;;;;;1.20;1.10;;;25.00;48.60;;;;;;4929715;28;20611;-76
2022/08/05 10:42:35;;;;;;;1.33;1.23;;;25.00;48.10;;;;;;4917537;28;20461;-76
2022/08/05 10:45:02;;;;;;;1.37;1.27;;;25.00;48.20;;;;;;4919994;28;20517;-67
2022/08/05 10:47:34;;;;;;;1.30;1.20;;;25.00;48.30;;;;;;4915972;28;20459;-70
2022/08/05 10:50:14;;;;;;;1.00;1.00;;;25.00;48.20;;;;;;4919522;28;20459;-75
2022/08/05 10:52:51;;;;;;;1.20;1.10;;;25.00;48.10;;;;;;4922308;28;20619;-59
2022/08/05 10:55:17;;;;;;;1.07;1.00;;;25.00;48.10;;;;;;4926731;28;21564;-59
2022/08/05 10:57:44;;;;;;;1.43;1.33;;;25.00;48.20;;;;;;4923693;28;20461;-74
2022/08/05 11:00:17;;;;;;;1.20;1.10;;;25.00;48.20;;;;;;4921580;28;20479;-77
2022/08/05 11:03:04;;;;;;;1.13;1.10;;;25.00;48.20;;;;;;4923697;28;20695;-77
2022/08/05 11:05:30;;;;;;;1.40;1.27;;;25.00;48.10;;;;;;4921523;28;21154;-70
2022/08/05 11:08:01;;;;;;;1.20;1.10;;;25.00;48.10;;;;;;4916372;28;20470;-71
2022/08/05 11:10:28;;;;;;;2.83;1.20;;;25.00;48.20;;;;;;4922860;28;20507;-56
2022/08/05 11:12:55;;;;;;;1.40;1.30;;;25.00;48.10;;;;;;4910439;28;20488;-69
2022/08/05 11:15:27;;;;;;;1.87;1.77;;;25.00;48.10;;;;;;4911377;28;20468;-64
2022/08/05 11:18:13;;;;;;;1.30;1.20;;;25.00;48.10;;;;;;4914659;28;21127;-74
2022/08/05 11:20:45;;;;;;;1.53;1.43;;;24.90;48.00;;;;;;4912617;28;20487;-77
2022/08/05 11:23:31;;;;;;;1.30;1.20;;;24.90;48.00;;;;;;4915712;28;20483;-71
2022/08/05 11:26:01;;;;;;;2.00;1.20;;;24.90;48.00;;;;;;4916979;28;20562;-76
2022/08/05 11:28:26;;;;;;;1.30;1.20;;;25.00;48.20;;;;;;4923734;28;23858;-59
2022/08/05 11:30:55;;;;;;;1.40;1.30;;;24.90;48.00;;;;;;4919700;28;20998;-73
2022/08/05 11:33:25;;;;;;;1.40;1.30;;;24.90;48.00;;;;;;4913466;28;20261;-64
2022/08/05 11:35:52;;;;;;;1.50;1.40;;;24.90;48.10;;;;;;4914634;28;20467;-78
2022/08/05 11:38:18;;;;;;;1.47;1.37;;;24.90;48.00;;;;;;4919739;28;20472;-78
2022/08/05 11:40:55;;;;;;;1.40;1.30;;;24.90;48.00;;;;;;4910768;28;20827;-69
2022/08/05 11:43:21;;;;;;;1.40;1.30;;;24.90;48.00;;;;;;4917714;28;20291;-64
2022/08/05 11:45:47;;;;;;;1.30;1.20;;;24.90;48.00;;;;;;4912714;28;21061;-67
2022/08/05 11:48:12;;;;;;;1.30;1.20;;;24.90;47.90;;;;;;4911706;28;20346;-75
2022/08/05 11:50:38;;;;;;;1.50;1.40;;;24.90;47.90;;;;;;4911738;28;20249;-61
2022/08/05 11:53:04;;;;;;;1.40;1.30;;;25.00;48.00;;;;;;4914736;28;21183;-75
2022/08/05 11:55:30;;;;;;;1.17;1.10;;;24.90;47.90;;;;;;4923244;28;20203;-74
2022/08/05 11:57:55;;;;;;;1.30;1.20;;;24.90;47.90;;;;;;4935719;28;20452;-61
2022/08/05 12:00:26;;;;;;;1.13;1.03;;;24.90;47.90;;;;;;4916126;28;20236;-73
2022/08/05 12:02:51;;;;;;;1.60;1.20;;;25.00;48.00;;;;;;4920363;28;20750;-70
2022/08/05 12:05:25;;;;;;;1.30;1.20;;;24.90;48.00;;;;;;4922687;28;20451;-73
2022/08/05 12:07:51;;;;;;;1.13;1.03;;;24.90;47.90;;;;;;4916096;28;20216;-66
2022/08/05 12:10:18;;;;;;;1.83;1.23;;;25.00;48.00;;;;;;4930671;28;20467;-73
2022/08/05 12:12:44;;;;;;;3.43;1.40;;;24.90;48.00;;;;;;4931821;28;20236;-74
2022/08/05 12:15:22;;;;;;;1.40;1.30;;;24.90;47.90;;;;;;4918936;28;20461;-69
2022/08/05 12:17:48;;;;;;;1.53;1.13;;;24.90;47.90;;;;;;4917598;28;20207;-62
2022/08/05 12:20:13;;;;;;;1.20;1.10;;;25.00;48.00;;;;;;4917561;28;21419;-74
2022/08/05 12:22:39;;;;;;;1.27;1.17;;;24.90;48.00;;;;;;4917993;28;21272;-73
2022/08/05 12:25:06;;;;;;;1.20;1.10;;;24.90;47.90;;;;;;4919041;28;21102;-73
2022/08/05 12:27:31;;;;;;;1.30;1.20;;;24.90;47.90;;;;;;4916249;28;20907;-67
2022/08/05 12:30:03;;;;;;;1.50;1.40;;;24.90;47.90;;;;;;4925123;28;20464;-73
2022/08/05 12:32:34;;;;;;;1.30;1.20;;;24.90;47.90;;;;;;4913803;28;20490;-73
2022/08/05 12:35:03;;;;;;;1.30;1.20;;;24.90;47.90;;;;;;4917159;28;20503;-60
2022/08/05 12:37:29;;;;;;;1.40;1.30;;;24.90;47.90;;;;;;4916147;28;20523;-74
2022/08/05 12:39:56;;;;;;;1.30;1.20;;;24.90;47.90;;;;;;4918365;28;20487;-67
2022/08/05 12:42:22;;;;;;;1.20;1.10;;;25.00;48.00;;;;;;4913992;28;23626;-75
2022/08/05 12:44:48;;;;;;;1.50;1.40;;;24.90;47.90;;;;;;4917444;28;21186;-70
2022/08/05 12:47:26;;;;;;;1.40;1.30;;;24.90;48.00;;;;;;4918259;28;20223;-69
2022/08/05 12:49:52;;;;;;;1.17;1.10;;;24.90;48.00;;;;;;4956357;28;20554;-61
2022/08/05 12:52:18;;;;;;;1.73;1.63;;;24.90;48.00;;;;;;4995493;28;23315;-59
2022/08/05 12:54:47;;;;;;;1.43;1.33;;;24.90;48.00;;;;;;4993662;28;20646;-63